sensor_id;sensor_type;location;lat;lon;timestamp;pressure;altitude;pressure_sealevel;temperature;humidity
64336;BME280;50672;53.362;-6.240;2022-07-03T00:00:22;101766.56;;;14.85;75.30
64336;BME280;50672;53.362;-6.240;2022-07-03T00:02:49;101773.97;;;14.85;75.38
64336;BME280;50672;53.362;-6.240;2022-07-03T00:05:16;101778.59;;;14.76;75.00
64336;BME280;50672;53.362;-6.240;2022-07-03T00:07:43;101774.88;;;14.69;74.79
64336;BME280;50672;53.362;-6.240;2022-07-03T00:10:10;101770.78;;;14.65;74.49
64336;BME280;50672;53.362;-6.240;2022-07-03T00:12:36;101774.88;;;14.61;74.83
64336;BME280;50672;53.362;-6.240;2022-07-03T00:15:04;101776.75;;;14.60;74.58
64336;BME280;50672;53.362;-6.240;2022-07-03T00:17:31;101780.03;;;14.56;74.83
64336;BME280;50672;53.362;-6.240;2022-07-03T00:19:58;101784.00;;;14.53;74.74
64336;BME280;50672;53.362;-6.240;2022-07-03T00:22:25;101790.00;;;14.48;74.56
64336;BME280;50672;53.362;-6.240;2022-07-03T00:24:55;101800.44;;;14.45;74.37
64336;BME280;50672;53.362;-6.240;2022-07-03T00:27:26;101806.28;;;14.42;74.31
64336;BME280;50672;53.362;-6.240;2022-07-03T00:30:14;101802.84;;;14.40;74.05
64336;BME280;50672;53.362;-6.240;2022-07-03T00:33:41;101802.53;;;14.34;73.76
64336;BME280;50672;53.362;-6.240;2022-07-03T00:36:08;101809.41;;;14.30;73.57
64336;BME280;50672;53.362;-6.240;2022-07-03T00:38:35;101809.91;;;14.26;73.75
64336;BME280;50672;53.362;-6.240;2022-07-03T00:41:02;101808.22;;;14.25;73.55
64336;BME280;50672;53.362;-6.240;2022-07-03T00:43:30;101807.16;;;14.26;73.27
64336;BME280;50672;53.362;-6.240;2022-07-03T00:46:06;101808.34;;;14.23;73.33
64336;BME280;50672;53.362;-6.240;2022-07-03T00:48:37;101808.03;;;14.26;73.32
64336;BME280;50672;53.362;-6.240;2022-07-03T00:51:06;101812.63;;;14.26;73.47
64336;BME280;50672;53.362;-6.240;2022-07-03T00:53:36;101810.06;;;14.24;72.95
64336;BME280;50672;53.362;-6.240;2022-07-03T00:56:04;101809.41;;;14.22;73.20
64336;BME280;50672;53.362;-6.240;2022-07-03T00:58:32;101813.84;;;14.23;73.20
64336;BME280;50672;53.362;-6.240;2022-07-03T01:01:02;101810.78;;;14.18;73.26
64336;BME280;50672;53.362;-6.240;2022-07-03T01:03:33;101808.22;;;14.16;73.26
64336;BME280;50672;53.362;-6.240;2022-07-03T01:06:05;101824.47;;;14.18;73.09
64336;BME280;50672;53.362;-6.240;2022-07-03T01:08:42;101816.44;;;14.16;73.08
64336;BME280;50672;53.362;-6.240;2022-07-03T01:19:36;101829.59;;;14.13;73.00
64336;BME280;50672;53.362;-6.240;2022-07-03T01:22:29;101831.31;;;14.14;73.02
64336;BME280;50672;53.362;-6.240;2022-07-03T01:30:30;101828.75;;;14.04;73.09
64336;BME280;50672;53.362;-6.240;2022-07-03T01:33:10;101821.75;;;14.01;73.50
64336;BME280;50672;53.362;-6.240;2022-07-03T01:35:40;101829.25;;;13.99;73.22
64336;BME280;50672;53.362;-6.240;2022-07-03T01:38:09;101825.31;;;13.94;73.55
64336;BME280;50672;53.362;-6.240;2022-07-03T01:40:39;101824.13;;;13.88;73.80
64336;BME280;50672;53.362;-6.240;2022-07-03T01:43:08;101829.94;;;13.85;73.71
64336;BME280;50672;53.362;-6.240;2022-07-03T01:45:43;101824.13;;;13.80;73.68
64336;BME280;50672;53.362;-6.240;2022-07-03T01:48:11;101835.75;;;13.74;73.59
64336;BME280;50672;53.362;-6.240;2022-07-03T01:50:40;101833.00;;;13.65;73.89
64336;BME280;50672;53.362;-6.240;2022-07-03T01:53:09;101831.28;;;13.56;74.15
64336;BME280;50672;53.362;-6.240;2022-07-03T01:55:40;101831.31;;;13.48;74.04
64336;BME280;50672;53.362;-6.240;2022-07-03T01:58:09;101841.50;;;13.38;74.31
64336;BME280;50672;53.362;-6.240;2022-07-03T02:03:32;101835.78;;;13.23;74.82
64336;BME280;50672;53.362;-6.240;2022-07-03T02:06:05;101841.25;;;13.14;74.80
64336;BME280;50672;53.362;-6.240;2022-07-03T02:11:38;101829.22;;;12.99;75.32
64336;BME280;50672;53.362;-6.240;2022-07-03T02:14:33;101834.34;;;12.94;75.27
64336;BME280;50672;53.362;-6.240;2022-07-03T02:19:45;101839.59;;;12.87;75.81
64336;BME280;50672;53.362;-6.240;2022-07-03T02:22:22;101839.06;;;12.83;75.97
64336;BME280;50672;53.362;-6.240;2022-07-03T02:24:52;101844.03;;;12.80;75.97
64336;BME280;50672;53.362;-6.240;2022-07-03T02:27:25;101838.34;;;12.73;76.05
64336;BME280;50672;53.362;-6.240;2022-07-03T02:30:07;101833.38;;;12.69;76.36
64336;BME280;50672;53.362;-6.240;2022-07-03T02:32:44;101846.50;;;12.65;76.38
64336;BME280;50672;53.362;-6.240;2022-07-03T02:35:31;101836.06;;;12.60;76.64
64336;BME280;50672;53.362;-6.240;2022-07-03T02:38:09;101842.53;;;12.59;76.68
64336;BME280;50672;53.362;-6.240;2022-07-03T02:43:31;101840.31;;;12.55;77.06
64336;BME280;50672;53.362;-6.240;2022-07-03T02:51:50;101833.44;;;12.51;77.27
64336;BME280;50672;53.362;-6.240;2022-07-03T02:54:20;101847.44;;;12.47;77.35
64336;BME280;50672;53.362;-6.240;2022-07-03T02:57:00;101846.41;;;12.48;77.23
64336;BME280;50672;53.362;-6.240;2022-07-03T02:59:56;101843.81;;;12.47;77.42
64336;BME280;50672;53.362;-6.240;2022-07-03T03:05:13;101847.56;;;12.46;77.38
64336;BME280;50672;53.362;-6.240;2022-07-03T03:10:24;101854.53;;;12.40;77.55
64336;BME280;50672;53.362;-6.240;2022-07-03T03:13:04;101843.78;;;12.39;77.62
64336;BME280;50672;53.362;-6.240;2022-07-03T03:15:33;101853.00;;;12.38;77.60
64336;BME280;50672;53.362;-6.240;2022-07-03T03:18:05;101848.00;;;12.33;77.85
64336;BME280;50672;53.362;-6.240;2022-07-03T03:20:34;101854.63;;;12.30;77.99
64336;BME280;50672;53.362;-6.240;2022-07-03T03:25:50;101853.25;;;12.26;77.78
64336;BME280;50672;53.362;-6.240;2022-07-03T03:28:17;101861.44;;;12.26;78.01
64336;BME280;50672;53.362;-6.240;2022-07-03T03:30:44;101864.88;;;12.28;78.06
64336;BME280;50672;53.362;-6.240;2022-07-03T03:33:11;101858.09;;;12.33;78.05
64336;BME280;50672;53.362;-6.240;2022-07-03T03:35:39;101856.91;;;12.35;78.08
64336;BME280;50672;53.362;-6.240;2022-07-03T03:38:06;101848.38;;;12.38;77.91
64336;BME280;50672;53.362;-6.240;2022-07-03T03:40:33;101850.78;;;12.41;77.92
64336;BME280;50672;53.362;-6.240;2022-07-03T03:43:01;101849.94;;;12.41;77.96
64336;BME280;50672;53.362;-6.240;2022-07-03T03:45:29;101839.19;;;12.39;77.96
64336;BME280;50672;53.362;-6.240;2022-07-03T03:47:56;101843.09;;;12.37;77.61
64336;BME280;50672;53.362;-6.240;2022-07-03T03:50:23;101843.09;;;12.37;77.58
64336;BME280;50672;53.362;-6.240;2022-07-03T03:52:50;101850.28;;;12.38;77.67
64336;BME280;50672;53.362;-6.240;2022-07-03T03:55:17;101847.38;;;12.39;77.80
64336;BME280;50672;53.362;-6.240;2022-07-03T03:57:44;101852.84;;;12.39;77.61
64336;BME280;50672;53.362;-6.240;2022-07-03T04:00:11;101853.34;;;12.43;77.29
64336;BME280;50672;53.362;-6.240;2022-07-03T04:02:38;101855.09;;;12.44;77.40
64336;BME280;50672;53.362;-6.240;2022-07-03T04:05:05;101852.91;;;12.47;77.27
64336;BME280;50672;53.362;-6.240;2022-07-03T04:07:32;101855.47;;;12.49;77.28
64336;BME280;50672;53.362;-6.240;2022-07-03T04:09:59;101856.16;;;12.51;77.29
64336;BME280;50672;53.362;-6.240;2022-07-03T04:12:26;101861.28;;;12.54;77.08
64336;BME280;50672;53.362;-6.240;2022-07-03T04:14:53;101865.06;;;12.53;77.24
64336;BME280;50672;53.362;-6.240;2022-07-03T04:17:19;101865.69;;;12.47;76.75
64336;BME280;50672;53.362;-6.240;2022-07-03T04:19:46;101865.44;;;12.40;76.66
64336;BME280;50672;53.362;-6.240;2022-07-03T04:22:13;101876.53;;;12.39;76.88
64336;BME280;50672;53.362;-6.240;2022-07-03T04:24:40;101869.22;;;12.39;76.86
64336;BME280;50672;53.362;-6.240;2022-07-03T04:27:07;101882.00;;;12.39;76.98
64336;BME280;50672;53.362;-6.240;2022-07-03T04:29:33;101878.41;;;12.38;76.77
64336;BME280;50672;53.362;-6.240;2022-07-03T04:32:00;101875.13;;;12.35;76.65
64336;BME280;50672;53.362;-6.240;2022-07-03T04:34:27;101881.47;;;12.35;76.85
64336;BME280;50672;53.362;-6.240;2022-07-03T04:36:54;101882.50;;;12.34;76.63
64336;BME280;50672;53.362;-6.240;2022-07-03T04:39:21;101886.22;;;12.33;76.61
64336;BME280;50672;53.362;-6.240;2022-07-03T04:41:48;101880.75;;;12.33;76.70
64336;BME280;50672;53.362;-6.240;2022-07-03T04:44:14;101886.38;;;12.31;76.71
64336;BME280;50672;53.362;-6.240;2022-07-03T04:46:41;101889.13;;;12.31;76.71
64336;BME280;50672;53.362;-6.240;2022-07-03T04:49:08;101891.53;;;12.35;76.81
64336;BME280;50672;53.362;-6.240;2022-07-03T04:51:35;101894.25;;;12.35;76.83
64336;BME280;50672;53.362;-6.240;2022-07-03T04:54:02;101898.53;;;12.37;76.63
64336;BME280;50672;53.362;-6.240;2022-07-03T04:56:29;101896.69;;;12.38;76.86
64336;BME280;50672;53.362;-6.240;2022-07-03T04:58:56;101890.34;;;12.37;76.54
64336;BME280;50672;53.362;-6.240;2022-07-03T05:01:23;101892.91;;;12.39;76.59
64336;BME280;50672;53.362;-6.240;2022-07-03T05:03:50;101901.66;;;12.42;76.50
64336;BME280;50672;53.362;-6.240;2022-07-03T05:06:17;101893.31;;;12.44;76.61
64336;BME280;50672;53.362;-6.240;2022-07-03T05:08:46;101899.44;;;12.46;76.63
64336;BME280;50672;53.362;-6.240;2022-07-03T05:11:12;101903.75;;;12.48;76.52
64336;BME280;50672;53.362;-6.240;2022-07-03T05:13:39;101906.97;;;12.44;76.39
64336;BME280;50672;53.362;-6.240;2022-07-03T05:16:06;101908.63;;;12.37;76.35
64336;BME280;50672;53.362;-6.240;2022-07-03T05:18:33;101901.22;;;12.29;76.39
64336;BME280;50672;53.362;-6.240;2022-07-03T05:21:01;101913.63;;;12.23;76.40
64336;BME280;50672;53.362;-6.240;2022-07-03T05:23:28;101921.44;;;12.18;76.54
64336;BME280;50672;53.362;-6.240;2022-07-03T05:25:55;101916.13;;;12.17;76.32
64336;BME280;50672;53.362;-6.240;2022-07-03T05:28:22;101915.09;;;12.18;76.46
64336;BME280;50672;53.362;-6.240;2022-07-03T05:30:49;101925.19;;;12.17;76.34
64336;BME280;50672;53.362;-6.240;2022-07-03T05:33:16;101925.19;;;12.17;76.50
64336;BME280;50672;53.362;-6.240;2022-07-03T05:35:43;101928.59;;;12.19;76.35
64336;BME280;50672;53.362;-6.240;2022-07-03T05:38:10;101924.53;;;12.23;76.64
64336;BME280;50672;53.362;-6.240;2022-07-03T05:40:37;101926.09;;;12.26;76.49
64336;BME280;50672;53.362;-6.240;2022-07-03T05:43:04;101926.81;;;12.28;76.35
64336;BME280;50672;53.362;-6.240;2022-07-03T05:45:30;101931.06;;;12.30;76.55
64336;BME280;50672;53.362;-6.240;2022-07-03T05:47:57;101923.59;;;12.33;76.37
64336;BME280;50672;53.362;-6.240;2022-07-03T05:50:27;101931.47;;;12.36;76.18
64336;BME280;50672;53.362;-6.240;2022-07-03T05:52:54;101934.75;;;12.39;76.36
64336;BME280;50672;53.362;-6.240;2022-07-03T05:55:21;101951.22;;;12.47;76.21
64336;BME280;50672;53.362;-6.240;2022-07-03T05:57:48;101943.75;;;12.58;76.04
64336;BME280;50672;53.362;-6.240;2022-07-03T06:00:15;101949.81;;;12.70;75.77
64336;BME280;50672;53.362;-6.240;2022-07-03T06:02:42;101946.28;;;12.77;75.74
64336;BME280;50672;53.362;-6.240;2022-07-03T06:05:09;101961.56;;;12.88;75.61
64336;BME280;50672;53.362;-6.240;2022-07-03T06:07:35;101960.56;;;12.97;75.55
64336;BME280;50672;53.362;-6.240;2022-07-03T06:10:03;101955.31;;;13.04;75.01
64336;BME280;50672;53.362;-6.240;2022-07-03T06:12:29;101962.72;;;13.12;75.05
64336;BME280;50672;53.362;-6.240;2022-07-03T06:14:56;101964.47;;;13.21;74.89
64336;BME280;50672;53.362;-6.240;2022-07-03T06:17:28;101957.84;;;13.32;74.52
64336;BME280;50672;53.362;-6.240;2022-07-03T06:19:55;101970.94;;;13.38;74.10
64336;BME280;50672;53.362;-6.240;2022-07-03T06:22:21;101969.88;;;13.39;74.11
64336;BME280;50672;53.362;-6.240;2022-07-03T06:24:49;101975.09;;;13.32;73.74
64336;BME280;50672;53.362;-6.240;2022-07-03T06:27:16;101975.44;;;13.29;73.51
64336;BME280;50672;53.362;-6.240;2022-07-03T06:29:43;101973.38;;;13.23;73.48
64336;BME280;50672;53.362;-6.240;2022-07-03T06:32:10;101975.22;;;13.14;73.18
64336;BME280;50672;53.362;-6.240;2022-07-03T06:34:37;101979.44;;;13.09;73.51
64336;BME280;50672;53.362;-6.240;2022-07-03T06:37:04;101986.28;;;13.05;73.14
64336;BME280;50672;53.362;-6.240;2022-07-03T06:39:30;101986.28;;;13.05;73.17
64336;BME280;50672;53.362;-6.240;2022-07-03T06:41:57;101982.16;;;13.01;73.37
64336;BME280;50672;53.362;-6.240;2022-07-03T06:44:24;101988.78;;;12.98;73.38
64336;BME280;50672;53.362;-6.240;2022-07-03T06:46:51;101990.81;;;12.96;73.31
64336;BME280;50672;53.362;-6.240;2022-07-03T06:49:19;101996.44;;;12.94;73.35
64336;BME280;50672;53.362;-6.240;2022-07-03T06:51:46;101996.97;;;12.98;73.16
64336;BME280;50672;53.362;-6.240;2022-07-03T06:54:13;101998.69;;;12.99;73.34
64336;BME280;50672;53.362;-6.240;2022-07-03T06:56:40;102005.81;;;12.92;73.04
64336;BME280;50672;53.362;-6.240;2022-07-03T06:59:08;101997.59;;;12.92;73.05
64336;BME280;50672;53.362;-6.240;2022-07-03T07:01:35;102011.66;;;12.97;72.88
64336;BME280;50672;53.362;-6.240;2022-07-03T07:04:02;102007.09;;;13.06;72.94
64336;BME280;50672;53.362;-6.240;2022-07-03T07:06:34;102013.31;;;13.16;73.05
64336;BME280;50672;53.362;-6.240;2022-07-03T07:09:01;102025.84;;;13.27;73.03
64336;BME280;50672;53.362;-6.240;2022-07-03T07:11:28;102017.72;;;13.35;72.92
64336;BME280;50672;53.362;-6.240;2022-07-03T07:13:55;102014.03;;;13.44;72.78
64336;BME280;50672;53.362;-6.240;2022-07-03T07:16:22;102022.59;;;13.49;72.58
64336;BME280;50672;53.362;-6.240;2022-07-03T07:18:49;102023.13;;;13.53;72.37
64336;BME280;50672;53.362;-6.240;2022-07-03T07:21:15;102021.75;;;13.57;72.12
64336;BME280;50672;53.362;-6.240;2022-07-03T07:23:42;102018.72;;;13.68;72.03
64336;BME280;50672;53.362;-6.240;2022-07-03T07:26:09;102014.50;;;13.82;71.68
64336;BME280;50672;53.362;-6.240;2022-07-03T07:28:36;102012.00;;;13.97;71.54
64336;BME280;50672;53.362;-6.240;2022-07-03T07:31:03;102019.38;;;14.13;71.48
64336;BME280;50672;53.362;-6.240;2022-07-03T07:33:30;102022.84;;;14.32;71.42
64336;BME280;50672;53.362;-6.240;2022-07-03T07:35:56;102029.84;;;14.43;70.80
64336;BME280;50672;53.362;-6.240;2022-07-03T07:38:23;102019.44;;;14.46;70.77
64336;BME280;50672;53.362;-6.240;2022-07-03T07:40:50;102027.13;;;14.43;70.39
64336;BME280;50672;53.362;-6.240;2022-07-03T07:43:17;102030.91;;;14.42;70.03
64336;BME280;50672;53.362;-6.240;2022-07-03T07:45:44;102037.75;;;14.46;69.76
64336;BME280;50672;53.362;-6.240;2022-07-03T07:48:11;102042.72;;;14.50;69.48
64336;BME280;50672;53.362;-6.240;2022-07-03T07:50:38;102043.25;;;14.54;69.25
64336;BME280;50672;53.362;-6.240;2022-07-03T07:53:05;102042.38;;;14.62;68.92
64336;BME280;50672;53.362;-6.240;2022-07-03T07:55:31;102040.22;;;14.74;68.77
64336;BME280;50672;53.362;-6.240;2022-07-03T07:57:58;102044.63;;;14.83;68.41
64336;BME280;50672;53.362;-6.240;2022-07-03T08:00:25;102052.69;;;14.84;67.98
64336;BME280;50672;53.362;-6.240;2022-07-03T08:02:52;102052.88;;;14.91;67.86
64336;BME280;50672;53.362;-6.240;2022-07-03T08:05:37;102053.88;;;14.98;67.63
64336;BME280;50672;53.362;-6.240;2022-07-03T08:08:14;102058.84;;;15.11;67.56
64336;BME280;50672;53.362;-6.240;2022-07-03T08:13:10;102048.38;;;15.15;66.92
64336;BME280;50672;53.362;-6.240;2022-07-03T08:15:38;102047.00;;;15.19;66.71
64336;BME280;50672;53.362;-6.240;2022-07-03T08:18:05;102065.53;;;15.17;66.44
64336;BME280;50672;53.362;-6.240;2022-07-03T08:20:33;102059.72;;;15.12;66.48
64336;BME280;50672;53.362;-6.240;2022-07-03T08:23:00;102060.19;;;15.24;66.29
64336;BME280;50672;53.362;-6.240;2022-07-03T08:25:27;102065.84;;;15.30;66.09
64336;BME280;50672;53.362;-6.240;2022-07-03T08:27:54;102060.00;;;15.33;66.00
64336;BME280;50672;53.362;-6.240;2022-07-03T08:30:21;102058.78;;;15.44;65.94
64336;BME280;50672;53.362;-6.240;2022-07-03T08:32:50;102063.88;;;15.55;65.54
64336;BME280;50672;53.362;-6.240;2022-07-03T08:35:17;102065.56;;;15.65;65.54
64336;BME280;50672;53.362;-6.240;2022-07-03T08:37:44;102067.59;;;15.79;65.30
64336;BME280;50672;53.362;-6.240;2022-07-03T08:40:15;102070.03;;;15.82;65.27
64336;BME280;50672;53.362;-6.240;2022-07-03T08:42:45;102074.09;;;15.86;64.79
64336;BME280;50672;53.362;-6.240;2022-07-03T08:45:17;102073.25;;;15.86;64.49
64336;BME280;50672;53.362;-6.240;2022-07-03T08:47:47;102072.75;;;15.82;64.55
64336;BME280;50672;53.362;-6.240;2022-07-03T08:50:17;102073.25;;;15.78;64.35
64336;BME280;50672;53.362;-6.240;2022-07-03T08:52:45;102082.03;;;15.81;64.13
64336;BME280;50672;53.362;-6.240;2022-07-03T08:55:14;102082.19;;;15.88;64.25
64336;BME280;50672;53.362;-6.240;2022-07-03T08:57:42;102079.09;;;15.83;63.81
64336;BME280;50672;53.362;-6.240;2022-07-03T09:00:14;102079.09;;;15.83;63.54
64336;BME280;50672;53.362;-6.240;2022-07-03T09:02:44;102084.19;;;15.94;63.57
64336;BME280;50672;53.362;-6.240;2022-07-03T09:05:13;102084.94;;;16.19;63.61
64336;BME280;50672;53.362;-6.240;2022-07-03T09:07:41;102077.06;;;16.39;63.01
64336;BME280;50672;53.362;-6.240;2022-07-03T09:10:14;102073.88;;;16.59;63.17
64336;BME280;50672;53.362;-6.240;2022-07-03T09:12:42;102077.88;;;16.71;62.84
64336;BME280;50672;53.362;-6.240;2022-07-03T09:15:11;102073.19;;;16.80;62.24
64336;BME280;50672;53.362;-6.240;2022-07-03T09:17:38;102082.03;;;16.67;62.06
64336;BME280;50672;53.362;-6.240;2022-07-03T09:20:07;102079.38;;;16.59;61.83
64336;BME280;50672;53.362;-6.240;2022-07-03T09:22:36;102081.06;;;16.60;61.21
64336;BME280;50672;53.362;-6.240;2022-07-03T09:25:13;102083.81;;;16.83;61.29
64336;BME280;50672;53.362;-6.240;2022-07-03T09:27:51;102079.38;;;17.05;60.81
64336;BME280;50672;53.362;-6.240;2022-07-03T09:30:19;102084.72;;;17.22;60.81
64336;BME280;50672;53.362;-6.240;2022-07-03T09:32:47;102081.00;;;17.30;60.56
64336;BME280;50672;53.362;-6.240;2022-07-03T09:37:51;102075.16;;;17.48;59.67
64336;BME280;50672;53.362;-6.240;2022-07-03T09:40:19;102093.66;;;17.69;59.54
64336;BME280;50672;53.362;-6.240;2022-07-03T09:43:04;102096.41;;;17.84;59.13
64336;BME280;50672;53.362;-6.240;2022-07-03T09:45:52;102093.69;;;17.99;58.83
64336;BME280;50672;53.362;-6.240;2022-07-03T09:51:19;102095.47;;;18.06;58.11
64336;BME280;50672;53.362;-6.240;2022-07-03T09:54:13;102100.03;;;17.99;57.62
64336;BME280;50672;53.362;-6.240;2022-07-03T09:56:38;102098.78;;;17.87;57.34
64336;BME280;50672;53.362;-6.240;2022-07-03T09:59:13;102106.28;;;17.63;57.32
64336;BME280;50672;53.362;-6.240;2022-07-03T10:01:42;102115.19;;;17.35;57.25
64336;BME280;50672;53.362;-6.240;2022-07-03T10:04:22;102119.94;;;16.80;57.84
64336;BME280;50672;53.362;-6.240;2022-07-03T10:06:56;102118.94;;;16.50;58.72
64336;BME280;50672;53.362;-6.240;2022-07-03T10:09:26;102121.59;;;16.35;59.61
64336;BME280;50672;53.362;-6.240;2022-07-03T10:11:55;102124.16;;;16.36;60.23
64336;BME280;50672;53.362;-6.240;2022-07-03T10:14:27;102123.41;;;16.51;60.62
64336;BME280;50672;53.362;-6.240;2022-07-03T10:16:55;102115.72;;;16.69;60.86
64336;BME280;50672;53.362;-6.240;2022-07-03T10:19:28;102120.97;;;16.79;60.86
64336;BME280;50672;53.362;-6.240;2022-07-03T10:24:25;102122.25;;;17.15;61.02
64336;BME280;50672;53.362;-6.240;2022-07-03T10:26:53;102124.63;;;17.56;60.87
64336;BME280;50672;53.362;-6.240;2022-07-03T10:29:22;102121.31;;;17.90;60.84
64336;BME280;50672;53.362;-6.240;2022-07-03T10:31:55;102127.28;;;18.24;60.49
64336;BME280;50672;53.362;-6.240;2022-07-03T10:34:24;102118.44;;;18.14;59.59
64336;BME280;50672;53.362;-6.240;2022-07-03T10:37:00;102131.00;;;18.01;58.88
64336;BME280;50672;53.362;-6.240;2022-07-03T10:42:03;102125.78;;;18.43;57.54
64336;BME280;50672;53.362;-6.240;2022-07-03T10:45:10;102118.34;;;18.95;56.49
64336;BME280;50672;53.362;-6.240;2022-07-03T10:47:45;102128.00;;;19.34;56.04
64336;BME280;50672;53.362;-6.240;2022-07-03T10:50:22;102124.13;;;19.28;55.28
64336;BME280;50672;53.362;-6.240;2022-07-03T10:52:50;102134.03;;;18.79;54.77
64336;BME280;50672;53.362;-6.240;2022-07-03T10:55:18;102139.97;;;18.40;55.10
64336;BME280;50672;53.362;-6.240;2022-07-03T10:58:20;102151.97;;;17.87;56.75
64336;BME280;50672;53.362;-6.240;2022-07-03T11:00:54;102160.03;;;17.59;57.44
64336;BME280;50672;53.362;-6.240;2022-07-03T11:03:57;102153.38;;;17.53;58.22
64336;BME280;50672;53.362;-6.240;2022-07-03T11:09:11;102170.88;;;17.75;59.86
64336;BME280;50672;53.362;-6.240;2022-07-03T11:11:42;102174.19;;;17.86;60.34
64336;BME280;50672;53.362;-6.240;2022-07-03T11:14:22;102165.13;;;18.00;60.11
64336;BME280;50672;53.362;-6.240;2022-07-03T11:16:49;102168.53;;;18.32;60.49
64336;BME280;50672;53.362;-6.240;2022-07-03T11:19:25;102168.97;;;18.51;60.08
64336;BME280;50672;53.362;-6.240;2022-07-03T11:21:55;102163.47;;;18.72;59.61
64336;BME280;50672;53.362;-6.240;2022-07-03T11:24:37;102168.44;;;18.62;59.34
64336;BME280;50672;53.362;-6.240;2022-07-03T11:27:20;102170.06;;;18.71;58.43
64336;BME280;50672;53.362;-6.240;2022-07-03T11:29:52;102175.88;;;18.98;57.92
64336;BME280;50672;53.362;-6.240;2022-07-03T11:32:51;102171.13;;;19.13;57.43
64336;BME280;50672;53.362;-6.240;2022-07-03T11:38:16;102171.72;;;19.59;55.86
64336;BME280;50672;53.362;-6.240;2022-07-03T11:40:45;102164.25;;;19.81;55.07
64336;BME280;50672;53.362;-6.240;2022-07-03T11:43:14;102163.47;;;19.87;54.81
64336;BME280;50672;53.362;-6.240;2022-07-03T11:45:41;102176.47;;;19.93;54.09
64336;BME280;50672;53.362;-6.240;2022-07-03T11:48:11;102167.72;;;19.90;53.95
64336;BME280;50672;53.362;-6.240;2022-07-03T11:50:39;102161.97;;;19.85;53.52
64336;BME280;50672;53.362;-6.240;2022-07-03T11:53:23;102165.88;;;19.75;52.90
64336;BME280;50672;53.362;-6.240;2022-07-03T11:58:19;102166.25;;;20.29;52.69
64336;BME280;50672;53.362;-6.240;2022-07-03T12:00:46;102161.19;;;20.46;52.37
64336;BME280;50672;53.362;-6.240;2022-07-03T12:05:56;102155.13;;;20.77;51.49
64336;BME280;50672;53.362;-6.240;2022-07-03T12:08:24;102146.63;;;20.86;51.27
64336;BME280;50672;53.362;-6.240;2022-07-03T12:10:57;102147.75;;;21.05;50.46
64336;BME280;50672;53.362;-6.240;2022-07-03T12:13:25;102151.16;;;21.13;50.33
64336;BME280;50672;53.362;-6.240;2022-07-03T12:15:53;102147.97;;;21.10;49.72
64336;BME280;50672;53.362;-6.240;2022-07-03T12:18:20;102159.63;;;20.98;49.63
64336;BME280;50672;53.362;-6.240;2022-07-03T12:20:47;102147.97;;;21.10;49.26
64336;BME280;50672;53.362;-6.240;2022-07-03T12:23:14;102157.56;;;21.61;49.17
64336;BME280;50672;53.362;-6.240;2022-07-03T12:25:41;102147.00;;;22.03;48.69
64336;BME280;50672;53.362;-6.240;2022-07-03T12:28:12;102152.03;;;22.33;48.09
64336;BME280;50672;53.362;-6.240;2022-07-03T12:30:39;102158.00;;;22.36;47.41
64336;BME280;50672;53.362;-6.240;2022-07-03T12:33:06;102147.19;;;22.15;47.01
64336;BME280;50672;53.362;-6.240;2022-07-03T12:35:33;102146.50;;;22.26;46.91
64336;BME280;50672;53.362;-6.240;2022-07-03T12:38:00;102153.38;;;22.69;46.65
64336;BME280;50672;53.362;-6.240;2022-07-03T12:40:27;102153.03;;;22.52;46.08
64336;BME280;50672;53.362;-6.240;2022-07-03T12:42:55;102142.53;;;22.61;45.61
64336;BME280;50672;53.362;-6.240;2022-07-03T12:45:26;102146.97;;;23.00;45.47
64336;BME280;50672;53.362;-6.240;2022-07-03T12:48:03;102136.03;;;23.37;44.72
64336;BME280;50672;53.362;-6.240;2022-07-03T12:50:47;102130.44;;;23.81;44.23
64336;BME280;50672;53.362;-6.240;2022-07-03T12:53:28;102130.59;;;23.86;43.62
64336;BME280;50672;53.362;-6.240;2022-07-03T12:58:29;102117.66;;;24.78;42.98
64336;BME280;50672;53.362;-6.240;2022-07-03T13:03:52;102105.66;;;26.89;41.33
64336;BME280;50672;53.362;-6.240;2022-07-03T13:06:21;102116.41;;;26.40;40.42
64336;BME280;50672;53.362;-6.240;2022-07-03T13:08:59;102119.19;;;24.93;39.92
64336;BME280;50672;53.362;-6.240;2022-07-03T13:11:37;102105.78;;;23.66;39.88
64336;BME280;50672;53.362;-6.240;2022-07-03T13:14:11;102116.84;;;22.72;40.28
64336;BME280;50672;53.362;-6.240;2022-07-03T13:16:45;102110.72;;;22.11;40.84
64336;BME280;50672;53.362;-6.240;2022-07-03T13:19:14;102111.06;;;21.70;41.13
64336;BME280;50672;53.362;-6.240;2022-07-03T13:21:42;102122.19;;;21.29;41.14
64336;BME280;50672;53.362;-6.240;2022-07-03T13:24:13;102114.72;;;20.96;41.72
64336;BME280;50672;53.362;-6.240;2022-07-03T13:26:41;102120.44;;;20.75;42.10
64336;BME280;50672;53.362;-6.240;2022-07-03T13:29:08;102120.03;;;20.78;42.50
64336;BME280;50672;53.362;-6.240;2022-07-03T13:31:35;102131.31;;;20.76;42.74
64336;BME280;50672;53.362;-6.240;2022-07-03T13:34:02;102120.69;;;21.13;42.80
64336;BME280;50672;53.362;-6.240;2022-07-03T13:36:30;102124.09;;;21.56;42.92
64336;BME280;50672;53.362;-6.240;2022-07-03T13:38:58;102122.13;;;22.42;42.21
64336;BME280;50672;53.362;-6.240;2022-07-03T13:41:25;102116.25;;;24.08;41.38
64336;BME280;50672;53.362;-6.240;2022-07-03T13:43:52;102105.59;;;24.84;40.36
64336;BME280;50672;53.362;-6.240;2022-07-03T13:46:21;102108.91;;;24.63;39.57
64336;BME280;50672;53.362;-6.240;2022-07-03T13:48:51;102110.13;;;24.36;38.83
64336;BME280;50672;53.362;-6.240;2022-07-03T13:51:19;102104.78;;;25.19;38.52
64336;BME280;50672;53.362;-6.240;2022-07-03T13:53:47;102117.44;;;25.69;37.85
64336;BME280;50672;53.362;-6.240;2022-07-03T13:56:15;102107.78;;;26.41;37.09
64336;BME280;50672;53.362;-6.240;2022-07-03T13:58:42;102108.78;;;25.23;36.89
64336;BME280;50672;53.362;-6.240;2022-07-03T14:01:16;102125.00;;;23.93;37.23
64336;BME280;50672;53.362;-6.240;2022-07-03T14:03:43;102124.56;;;22.95;37.93